Flight Track Log - Related Links

Times and Time Zones

All times are in EDT time to prevent confusion due to time zone crossing. See the SWA1035 flight status page for this flight to view local times or setup timezone preferences in your user account.

Time Position Orientation Groundspeed Altitude Reporting Facility
EDT Latitude Longitude Course Direction KTS MPH feet Rate Location/Type
Thu 07:09:42 AM 42.9500 -71.4167 20° North 163 188 1,200  Level KA90
Thu 07:10:20 AM 42.9814 -71.4014 20° North 238 274 2,400 1,898 Climbing Boston Center
Thu 07:11:20 AM 43.0247 -71.3636 33° Northeast 244 281 4,300 3,000 Climbing Boston Center
Thu 07:12:20 AM 43.0403 -71.2497 79° East 239 275 8,400 3,200 Climbing Boston Center
Thu 07:13:20 AM 43.0539 -71.1586 78° East 254 292 10,700 2,450 Climbing Boston Center
Thu 07:14:20 AM 43.0544 -71.0308 90° East 292 336 13,300 2,500 Climbing Boston Center
Thu 07:15:20 AM 42.9683 -70.9872 160° South 296 341 15,700 2,350 Climbing Boston Center
Thu 07:16:20 AM 42.8494 -70.9647 172° South 358 412 18,000 1,955 Climbing Boston Center
Thu 07:17:32 AM 42.7372 -71.0042 194° South 411 473 20,000 2,364 Climbing Boston Center
Thu 07:18:32 AM 42.5964 -71.0750 200° South 437 503 23,200 2,600 Climbing Boston Center
Thu 07:19:32 AM 42.4722 -71.1339 199° South 450 518 25,200 1,900 Climbing Boston Center
Thu 07:20:32 AM 42.3922 -71.2622 230° Southwest 438 504 27,000 1,750 Climbing Boston Center
Thu 07:21:32 AM 42.3417 -71.4261 247° West 454 522 28,700 1,550 Climbing Boston Center
Thu 07:22:32 AM 42.2908 -71.5756 245° Southwest 466 536 30,100 1,450 Climbing Boston Center
Thu 07:23:32 AM 42.2378 -71.7447 247° West 477 549 31,600 1,500 Climbing Boston Center
Thu 07:24:32 AM 42.1783 -71.9303 247° West 490 564 33,100 1,500 Climbing Boston Center
Thu 07:25:32 AM 42.1228 -72.1014 246° West 500 575 34,600 1,600 Climbing Boston Center
Thu 07:26:32 AM 42.0439 -72.2500 234° Southwest 500 575 36,300 1,700 Climbing Boston Center
Thu 07:27:32 AM 41.9628 -72.3925 233° Southwest 494 568 38,000 850 Climbing Boston Center
Thu 07:28:32 AM 41.8814 -72.5350 233° Southwest 489 563 38,000  Level Boston Center
Thu 07:29:32 AM 41.8144 -72.6575 234° Southwest 483 556 38,000  Level Boston Center
Thu 07:30:32 AM 41.7225 -72.8128 232° Southwest 483 556 38,000  Level Boston Center
Thu 07:31:32 AM 41.6447 -72.9539 234° Southwest 483 556 38,000  Level Boston Center
Thu 07:32:32 AM 41.5650 -73.0922 232° Southwest 483 556 38,000  Level Boston Center
Thu 07:33:32 AM 41.5164 -73.1803 234° Southwest 473 544 38,000 -500 Level Boston Center
Thu 07:34:32 AM 41.4214 -73.3481 233° Southwest 473 544 37,000 -500 Descending Boston Center
Thu 07:35:32 AM 41.4097 -73.4836 263° West 455 524 37,000  Level Boston Center
Thu 07:37:11 AM 41.5722 -73.6522 322° Northwest 362 417 37,000  Level New York Center
Thu 07:38:11 AM 41.5578 -73.8097 263° West 376 433 37,000  Level New York Center
Thu 07:39:09 AM 41.4261 -73.8258 185° South 293 337 37,000  Level New York Center
Thu 07:40:11 AM 41.2958 -73.7894 168° South 358 412 37,000  Level New York Center
Thu 07:41:09 AM 41.1664 -73.8031 185° South 425 489 37,000 50 Level New York Center
Thu 07:42:10 AM 41.0758 -73.9256 226° Southwest 429 494 37,100 492 Climbing New York Center
Thu 07:43:11 AM 40.9972 -74.0592 232° Southwest 436 502 38,000 454 Climbing New York Center
Thu 07:44:09 AM 40.9075 -74.2031 231° Southwest 461 531 38,000  Level New York Center
Thu 07:45:09 AM 40.8308 -74.3336 232° Southwest 468 539 38,000  Level New York Center
Thu 07:46:10 AM 40.7517 -74.4636 231° Southwest 463 533 38,000  Level New York Center
Thu 07:47:10 AM 40.6747 -74.5936 232° Southwest 458 527 38,000  Level New York Center
Thu 07:48:11 AM 40.5933 -74.7256 231° Southwest 463 533 38,000  Level New York Center
Thu 07:49:11 AM 40.5100 -74.8492 228° Southwest 463 533 38,000  Level New York Center
Thu 07:50:09 AM 40.4244 -74.9694 227° Southwest 463 533 38,000  Level New York Center
Thu 07:51:09 AM 40.3389 -75.0894 227° Southwest 458 527 38,000  Level New York Center
Thu 07:52:11 AM 40.2528 -75.2147 228° Southwest 458 527 38,000  Level New York Center
Thu 07:53:11 AM 40.1650 -75.3342 226° Southwest 458 527 38,000  Level New York Center
Thu 07:54:10 AM 40.0856 -75.4456 227° Southwest 458 527 38,000  Level New York Center
Thu 07:55:10 AM 39.9972 -75.5642 226° Southwest 458 527 38,000  Level New York Center
Thu 07:56:10 AM 39.9131 -75.6883 229° Southwest 458 527 38,000  Level New York Center
Thu 07:57:10 AM 39.8347 -75.8128 231° Southwest 458 527 38,000  Level New York Center
Thu 07:58:11 AM 39.7586 -75.9369 231° Southwest 453 521 38,000  Level New York Center
Thu 07:59:48 AM 39.6292 -76.1358 230° Southwest 451 519 38,000  Level Washington Center
Thu 08:00:46 AM 39.5514 -76.2589 231° Southwest 451 519 38,000  Level Washington Center
Thu 08:01:47 AM 39.4694 -76.3792 229° Southwest 451 519 38,000  Level Washington Center
Thu 08:02:47 AM 39.3956 -76.5019 232° Southwest 451 519 38,000  Level Washington Center
Thu 08:03:48 AM 39.3111 -76.6217 228° Southwest 451 519 38,000  Level Washington Center
Thu 08:04:48 AM 39.2331 -76.7464 231° Southwest 451 519 38,000  Level Washington Center
Thu 08:05:45 AM 39.1547 -76.8683 230° Southwest 451 519 38,000  Level Washington Center
Thu 08:06:47 AM 39.0742 -76.9925 230° Southwest 451 519 38,000  Level Washington Center
Thu 08:07:48 AM 38.9853 -77.1031 224° Southwest 456 525 38,000  Level Washington Center
Thu 08:08:48 AM 38.8881 -77.2078 220° Southwest 451 519 38,000  Level Washington Center
Thu 08:09:46 AM 38.7928 -77.3122 221° Southwest 456 525 38,000  Level Washington Center
Thu 08:10:47 AM 38.6972 -77.4192 221° Southwest 461 531 38,000  Level Washington Center
Thu 08:11:47 AM 38.5978 -77.5256 220° Southwest 461 531 38,000  Level Washington Center
Thu 08:12:47 AM 38.4936 -77.6422 221° Southwest 461 531 38,000  Level Washington Center
Thu 08:13:48 AM 38.3958 -77.7456 220° Southwest 467 537 38,000  Level Washington Center
Thu 08:14:48 AM 38.3022 -77.8486 221° Southwest 454 522 38,000  Level Washington Center
Thu 08:15:46 AM 38.2064 -77.9514 220° Southwest 454 522 38,000  Level Washington Center
Thu 08:16:46 AM 38.1125 -78.0514 220° Southwest 449 517 38,000  Level Washington Center
Thu 08:17:47 AM 38.0167 -78.1536 220° Southwest 449 517 38,000  Level Washington Center
Thu 08:18:48 AM 37.9250 -78.2428 218° Southwest 438 504 38,000  Level Washington Center
Thu 08:19:46 AM 37.8250 -78.3364 216° Southwest 438 504 38,000  Level Washington Center
Thu 08:20:46 AM 37.7247 -78.4325 217° Southwest 450 518 38,000  Level Washington Center
Thu 08:21:47 AM 37.6264 -78.5261 217° Southwest 450 518 38,000  Level Washington Center
Thu 08:22:48 AM 37.5261 -78.6189 216° Southwest 450 518 38,000  Level Washington Center
Thu 08:23:48 AM 37.4364 -78.7017 216° Southwest 450 518 38,000  Level Washington Center
Thu 08:24:46 AM 37.3381 -78.7944 217° Southwest 450 518 38,000  Level Washington Center
Thu 08:25:46 AM 37.2394 -78.8842 216° Southwest 445 512 38,000  Level Washington Center
Thu 08:26:47 AM 37.1411 -78.9739 216° Southwest 439 505 38,000  Level Washington Center
Thu 08:27:48 AM 37.0447 -79.0633 217° Southwest 439 505 38,000  Level Washington Center
Thu 08:28:46 AM 36.9394 -79.1597 216° Southwest 439 505 38,000  Level Washington Center
Thu 08:29:47 AM 36.8450 -79.2489 217° Southwest 439 505 38,000  Level Washington Center
Thu 08:30:48 AM 36.7464 -79.3375 216° Southwest 439 505 38,000  Level Washington Center
Thu 08:31:46 AM 36.6517 -79.4261 217° Southwest 439 505 38,000  Level Washington Center
Thu 08:32:46 AM 36.5550 -79.5144 216° Southwest 439 505 38,000  Level Washington Center
Thu 08:34:13 AM 36.4233 -79.6319 216° Southwest 453 521 38,000  Level Atlanta Center
Thu 08:35:13 AM 36.3142 -79.7281 215° Southwest 448 516 38,000  Level Atlanta Center
Thu 08:36:13 AM 36.2172 -79.8208 218° Southwest 442 509 38,000  Level Atlanta Center
Thu 08:37:13 AM 36.1200 -79.9056 215° Southwest 442 509 38,000  Level Atlanta Center
Thu 08:38:13 AM 36.0206 -79.9875 214° Southwest 442 509 38,000  Level Atlanta Center
Thu 08:39:13 AM 35.9181 -80.0389 202° Southwest 435 501 38,000  Level Atlanta Center
Thu 08:40:13 AM 35.8072 -80.0931 202° Southwest 435 501 38,000  Level Atlanta Center
Thu 08:41:13 AM 35.6922 -80.1497 202° Southwest 440 506 38,000  Level Atlanta Center
Thu 08:42:13 AM 35.5833 -80.2083 204° Southwest 440 506 38,000  Level Atlanta Center
Thu 08:43:13 AM 35.4744 -80.2644 203° Southwest 435 501 38,000  Level Atlanta Center
Thu 08:44:13 AM 35.3594 -80.3233 203° Southwest 435 501 38,000  Level Atlanta Center
Thu 08:45:13 AM 35.2506 -80.3764 202° Southwest 435 501 38,000  Level Atlanta Center
Thu 08:47:32 AM 34.9883 -80.5033 202° Southwest 425 489 38,000  Level Jacksonville Center
Thu 08:48:32 AM 34.8786 -80.5569 202° Southwest 425 489 38,000  Level Jacksonville Center
Thu 08:49:32 AM 34.7775 -80.6103 203° Southwest 425 489 38,000  Level Jacksonville Center
Thu 08:50:32 AM 34.6658 -80.6661 202° Southwest 420 483 38,000  Level Jacksonville Center
Thu 08:51:32 AM 34.5542 -80.7169 201° Southwest 435 501 38,000  Level Jacksonville Center
Thu 08:52:32 AM 34.4569 -80.7622 201° Southwest 435 501 38,000  Level Jacksonville Center
Thu 08:53:32 AM 34.3472 -80.8178 203° Southwest 424 488 38,000  Level Jacksonville Center
Thu 08:54:32 AM 34.2333 -80.8758 203° Southwest 417 480 38,000  Level Jacksonville Center
Thu 08:55:32 AM 34.1258 -80.9308 203° Southwest 412 474 38,000  Level Jacksonville Center
Thu 08:56:32 AM 34.0181 -80.9808 201° Southwest 412 474 38,000  Level Jacksonville Center
Thu 08:57:32 AM 33.9103 -81.0308 201° Southwest 417 480 38,000  Level Jacksonville Center
Thu 08:58:32 AM 33.8006 -81.0806 201° Southwest 417 480 38,000  Level Jacksonville Center
Thu 08:59:32 AM 33.7031 -81.1325 204° Southwest 417 480 38,000  Level Jacksonville Center
Thu 09:00:32 AM 33.5953 -81.1869 203° Southwest 417 480 38,000  Level Jacksonville Center
Thu 09:01:32 AM 33.4875 -81.2389 202° Southwest 417 480 38,000  Level Jacksonville Center
Thu 09:02:32 AM 33.3797 -81.2956 204° Southwest 417 480 38,000  Level Jacksonville Center
Thu 09:03:32 AM 33.2697 -81.3447 200° South 417 480 38,000  Level Jacksonville Center
Thu 09:04:32 AM 33.1658 -81.3961 202° Southwest 417 480 38,000  Level Jacksonville Center
Thu 09:05:32 AM 33.0600 -81.4475 202° Southwest 412 474 38,000  Level Jacksonville Center
Thu 09:06:32 AM 32.9522 -81.5014 203° Southwest 417 480 38,000  Level Jacksonville Center
Thu 09:07:32 AM 32.8464 -81.5550 203° Southwest 417 480 38,000  Level Jacksonville Center
Thu 09:08:32 AM 32.7403 -81.6058 202° Southwest 412 474 38,000  Level Jacksonville Center
Thu 09:09:32 AM 32.6239 -81.6592 201° Southwest 405 466 38,000  Level Jacksonville Center
Thu 09:10:32 AM 32.5200 -81.7100 202° Southwest 410 472 38,000  Level Jacksonville Center
Thu 09:11:32 AM 32.4225 -81.7556 202° Southwest 415 478 38,000  Level Jacksonville Center
Thu 09:12:32 AM 32.3061 -81.8111 202° Southwest 415 478 38,000  Level Jacksonville Center
Thu 09:13:32 AM 32.1978 -81.8664 203° Southwest 415 478 38,000  Level Jacksonville Center
Thu 09:14:32 AM 32.1000 -81.9092 200° South 415 478 38,000  Level Jacksonville Center
Thu 09:15:32 AM 31.9836 -81.9642 202° Southwest 415 478 38,000  Level Jacksonville Center
Thu 09:16:32 AM 31.8836 -81.9947 195° South 410 472 38,000  Level Jacksonville Center
Thu 09:17:32 AM 31.7564 -82.0131 187° South 416 479 38,000  Level Jacksonville Center
Thu 09:18:32 AM 31.6439 -82.0336 189° South 421 484 38,000  Level Jacksonville Center
Thu 09:19:32 AM 31.5269 -82.0567 190° South 426 490 38,000  Level Jacksonville Center
Thu 09:20:32 AM 31.4122 -82.0722 187° South 426 490 38,000  Level Jacksonville Center
Thu 09:21:32 AM 31.2997 -82.0950 190° South 426 490 38,000  Level Jacksonville Center
Thu 09:22:32 AM 31.1828 -82.1106 186° South 426 490 38,000  Level Jacksonville Center
Thu 09:23:32 AM 31.0681 -82.1261 187° South 426 490 38,000  Level Jacksonville Center
Thu 09:24:32 AM 30.9533 -82.1464 189° South 426 490 38,000  Level Jacksonville Center
Thu 09:25:32 AM 30.8408 -82.1642 188° South 420 483 38,000  Level Jacksonville Center
Thu 09:26:32 AM 30.7239 -82.1822 188° South 420 483 38,000  Level Jacksonville Center
Thu 09:27:32 AM 30.6092 -82.1997 187° South 420 483 38,000  Level Jacksonville Center
Thu 09:28:32 AM 30.4964 -82.2128 186° South 425 489 38,000  Level Jacksonville Center
Thu 09:29:32 AM 30.3797 -82.2303 187° South 425 489 38,000  Level Jacksonville Center
Thu 09:30:32 AM 30.2628 -82.2506 189° South 425 489 38,000  Level Jacksonville Center
Thu 09:31:32 AM 30.1481 -82.2681 188° South 425 489 38,000 -600 Level Jacksonville Center
Thu 09:32:32 AM 30.0292 -82.2881 188° South 425 489 36,800 -2,000 Descending Jacksonville Center
Thu 09:33:32 AM 29.9122 -82.3128 190° South 425 489 34,000 -2,850 Descending Jacksonville Center
Thu 09:34:32 AM 29.7956 -82.3300 187° South 425 489 31,100 -2,650 Descending Jacksonville Center
Thu 09:35:32 AM 29.6786 -82.3428 185° South 425 489 28,700 -2,100 Descending Jacksonville Center
Thu 09:36:32 AM 29.5619 -82.3553 185° South 425 489 26,900 -1,350 Descending Jacksonville Center
Thu 09:37:32 AM 29.4511 -82.3417 174° South 414 476 26,000 -950 Descending Jacksonville Center
Thu 09:38:32 AM 29.3383 -82.3303 175° South 409 471 25,000 -1,500 Descending Jacksonville Center
Thu 09:39:32 AM 29.2297 -82.3167 174° South 404 465 23,000 -2,100 Descending Jacksonville Center
Thu 09:40:32 AM 29.1253 -82.3031 174° South 399 459 20,800 -2,100 Descending Jacksonville Center
Thu 09:41:32 AM 29.0250 -82.2917 174° South 385 443 18,800 -1,800 Descending Jacksonville Center
Thu 09:42:32 AM 28.9372 -82.2828 175° South 369 425 17,200 -1,850 Descending Jacksonville Center
Thu 09:43:32 AM 28.8372 -82.2717 174° South 364 419 15,100 -1,575 Descending Jacksonville Center
Thu 09:45:12 AM 28.6667 -82.2667 179° South 318 366 13,000 -818 Descending Tampa TRACON
Thu 09:46:06 AM 28.6000 -82.2500 168° South 305 351 13,000 -842 Level Tampa TRACON
Thu 09:47:06 AM 28.5167 -82.2500 180° South 304 350 11,400 -952 Descending Tampa TRACON
Thu 09:48:12 AM 28.4167 -82.2500 180° South 303 349 11,000 -190 Descending Tampa TRACON
Thu 09:49:12 AM 28.3333 -82.2833 199° South 289 333 11,000 -263 Level Tampa TRACON
Thu 09:50:06 AM 28.2833 -82.3167 210° Southwest 257 296 10,500 -842 Descending Tampa TRACON
Thu 09:51:06 AM 28.2333 -82.3667 221° Southwest 247 284 9,400 -1,000 Descending Tampa TRACON
Thu 09:52:06 AM 28.1833 -82.4167 221° Southwest 239 275 8,500 -950 Descending Tampa TRACON
Thu 09:53:06 AM 28.1167 -82.4167 180° South 235 270 7,500 -1,091 Descending Tampa TRACON
Thu 09:54:07 AM 28.0500 -82.4167 180° South 241 277 6,300 -1,091 Descending Tampa TRACON
Thu 09:55:07 AM 27.9833 -82.4167 180° South 236 272 5,300 -650 Descending Tampa TRACON
Thu 09:56:07 AM 27.9167 -82.4167 180° South 232 267 5,000 -600 Descending Tampa TRACON
Thu 09:57:07 AM 27.8500 -82.4333 192° South 228 262 4,100 -550 Descending Tampa TRACON
Thu 09:58:07 AM 27.8000 -82.4500 196° South 226 260 3,900 -750 Descending Tampa TRACON
Thu 09:59:07 AM 27.7667 -82.5167 241° Southwest 235 270 2,600 -700 Descending Tampa TRACON
Thu 10:00:07 AM 27.8167 -82.5500 329° Northwest 214 246 2,500 -368 Descending Tampa TRACON
Thu 10:01:01 AM 27.8667 -82.5500 360° North 205 236 1,900 -800 Descending Tampa TRACON
Thu 10:02:07 AM 27.9167 -82.5500 360° North 160 184 900 -810 Descending Tampa TRACON
Thu 10:03:07 AM 27.9500 -82.5500 360° North 140 161 200 -700 Descending Tampa TRACON
Thu 10:05:00 AM 27.9667 -82.5167 350° North  Level FlightAware Approximate
Thu 10:12:00 AM 27.9755 -82.5332 350° North  Level Estimated

Login

Don't have an account? Register now (free) for customized features, flight alerts, and more!